Time;durP1;ratioP1;P1;durP2;ratioP2;P2;SDS_P1;SDS_P2;PMS_P1;PMS_P2;Temp;Humidity;BMP_temperature;BMP_pressure;BME280_temperature;BME280_humidity;BME280_pressure;Samples;Min_cycle;Max_cycle;Signal;HPM_P1;HPM_P2
2021/12/13 00:02:29;;;;;;;85.60;25.80;;;10.10;99.90;;;;;;4885995;29;20429;-66
2021/12/13 00:05:13;;;;;;;87.65;26.38;;;10.10;99.90;;;;;;4899795;29;20104;-67
2021/12/13 00:07:41;;;;;;;82.35;25.67;;;10.10;99.90;;;;;;4884048;29;20490;-66
2021/12/13 00:10:17;;;;;;;86.22;25.30;;;10.10;99.90;;;;;;4903115;29;20524;-66
2021/12/13 00:12:49;;;;;;;81.53;25.35;;;10.10;99.90;;;;;;4897834;29;20071;-68
2021/12/13 00:15:24;;;;;;;89.47;26.88;;;10.10;99.90;;;;;;4897841;29;20527;-66
2021/12/13 00:17:52;;;;;;;82.65;26.23;;;10.10;99.90;;;;;;4897931;29;20127;-67
2021/12/13 00:20:30;;;;;;;79.80;27.42;;;10.10;99.90;;;;;;4896622;29;20100;-67
2021/12/13 00:23:01;;;;;;;87.20;26.40;;;10.10;99.90;;;;;;4881350;29;20385;-68
2021/12/13 00:25:29;;;;;;;85.60;27.48;;;10.10;99.90;;;;;;4881174;29;20052;-69
2021/12/13 00:28:07;;;;;;;70.57;26.17;;;10.10;99.90;;;;;;4880823;29;20131;-66
2021/12/13 00:30:44;;;;;;;71.90;24.98;;;10.10;99.90;;;;;;4897842;29;20160;-68
2021/12/13 00:33:55;;;;;;;67.75;24.67;;;10.10;99.90;;;;;;4897491;29;20084;-68
2021/12/13 00:36:38;;;;;;;70.80;23.92;;;10.10;99.90;;;;;;4897761;29;20064;-69
2021/12/13 00:39:29;;;;;;;77.97;25.58;;;10.10;99.90;;;;;;4896159;29;20060;-70
2021/12/13 00:41:55;;;;;;;87.50;25.73;;;10.10;99.90;;;;;;4855242;29;20062;-67
2021/12/13 00:44:30;;;;;;;83.97;27.10;;;10.10;99.90;;;;;;4877625;29;20061;-67
2021/12/13 00:47:00;;;;;;;95.45;26.40;;;10.10;99.90;;;;;;4878658;29;20049;-68
2021/12/13 00:49:29;;;;;;;98.05;27.67;;;10.10;99.90;;;;;;4915073;29;20432;-68
2021/12/13 00:51:56;;;;;;;99.20;29.38;;;10.10;99.90;;;;;;4899476;29;20060;-66
2021/12/13 00:54:32;;;;;;;112.13;30.27;;;10.10;99.90;;;;;;4915288;29;20489;-67
2021/12/13 00:57:01;;;;;;;92.55;28.05;;;10.10;99.90;;;;;;4899057;29;20414;-67
2021/12/13 00:59:32;;;;;;;88.90;28.48;;;10.10;99.90;;;;;;4901232;29;20386;-67
2021/12/13 01:02:09;;;;;;;90.35;28.48;;;10.10;99.90;;;;;;4914602;29;20060;-68
2021/12/13 01:05:04;;;;;;;86.40;28.75;;;10.10;99.90;;;;;;4903373;29;20059;-68
2021/12/13 01:07:32;;;;;;;102.05;27.25;;;10.10;99.90;;;;;;4901406;29;20142;-67
2021/12/13 01:10:17;;;;;;;86.13;27.77;;;10.10;99.90;;;;;;4920051;29;20066;-67
2021/12/13 01:12:46;;;;;;;87.68;25.75;;;10.10;99.90;;;;;;4887405;29;20059;-69
2021/12/13 01:15:16;;;;;;;81.68;26.52;;;10.10;99.90;;;;;;4903111;29;20056;-68
2021/12/13 01:20:32;;;;;;;79.10;24.10;;;10.10;99.90;;;;;;4918908;29;20210;-67
2021/12/13 01:23:12;;;;;;;63.53;22.58;;;10.10;99.90;;;;;;4901833;29;20092;-66
2021/12/13 01:26:00;;;;;;;64.95;23.75;;;10.10;99.90;;;;;;4919212;29;20477;-68
2021/12/13 01:28:26;;;;;;;58.08;22.30;;;10.10;99.90;;;;;;4902962;29;20056;-67
2021/12/13 01:30:57;;;;;;;56.30;21.27;;;10.10;99.90;;;;;;4897887;29;20059;-67
2021/12/13 01:33:26;;;;;;;56.67;22.25;;;10.10;99.90;;;;;;4916095;29;20135;-68
2021/12/13 01:35:55;;;;;;;61.47;22.80;;;10.10;99.90;;;;;;4919501;29;20092;-67
2021/12/13 01:38:33;;;;;;;56.22;21.95;;;10.10;99.90;;;;;;4919539;29;20077;-66
2021/12/13 01:41:08;;;;;;;74.25;24.05;;;10.20;99.90;;;;;;4919043;29;20108;-67
2021/12/13 01:43:38;;;;;;;62.78;22.08;;;10.10;99.90;;;;;;4918255;29;20064;-69
2021/12/13 01:46:04;;;;;;;64.50;22.17;;;10.20;99.90;;;;;;4910725;29;20088;-68
2021/12/13 01:48:36;;;;;;;63.47;22.42;;;10.10;99.90;;;;;;4917959;29;20060;-70
2021/12/13 01:51:08;;;;;;;60.17;21.92;;;10.10;99.90;;;;;;4917896;29;20489;-68
2021/12/13 01:53:45;;;;;;;50.42;19.42;;;10.10;99.90;;;;;;4901968;29;20481;-67
2021/12/13 01:56:54;;;;;;;58.30;21.25;;;10.10;99.90;;;;;;4891409;29;20052;-68
2021/12/13 02:02:08;;;;;;;59.50;22.00;;;10.10;99.90;;;;;;4883154;29;20630;-67
2021/12/13 02:04:35;;;;;;;66.88;21.95;;;10.10;99.90;;;;;;4899152;29;20048;-69
2021/12/13 02:07:03;;;;;;;55.58;21.52;;;10.10;99.90;;;;;;4883475;29;20456;-67
2021/12/13 02:09:59;;;;;;;61.60;23.27;;;10.10;99.90;;;;;;4893410;29;20119;-66
2021/12/13 02:12:28;;;;;;;61.83;22.30;;;10.10;99.90;;;;;;4880461;29;20131;-68
2021/12/13 02:17:43;;;;;;;56.65;22.23;;;10.10;99.90;;;;;;4901757;29;20052;-66
2021/12/13 02:20:26;;;;;;;53.28;20.45;;;10.10;99.90;;;;;;4918586;29;20060;-67
2021/12/13 02:22:55;;;;;;;49.75;20.20;;;10.10;99.90;;;;;;4864588;29;20092;-67
2021/12/13 02:25:29;;;;;;;57.05;20.23;;;10.10;99.90;;;;;;4890095;29;20060;-67
2021/12/13 02:28:06;;;;;;;56.63;21.85;;;10.10;99.90;;;;;;4902732;29;20086;-67
2021/12/13 02:30:59;;;;;;;53.42;21.65;;;10.10;99.90;;;;;;4886170;29;20054;-67
2021/12/13 02:33:33;;;;;;;54.10;21.95;;;10.10;99.90;;;;;;4900944;29;20059;-68
2021/12/13 02:36:07;;;;;;;53.05;21.88;;;10.10;99.90;;;;;;4901125;29;20052;-69
2021/12/13 02:38:34;;;;;;;63.13;23.73;;;10.10;99.90;;;;;;4901711;29;20153;-68
2021/12/13 02:41:00;;;;;;;55.10;22.08;;;10.10;99.90;;;;;;4908450;29;20048;-68
2021/12/13 02:43:31;;;;;;;50.70;21.67;;;10.10;99.90;;;;;;4917865;29;20127;-67
2021/12/13 02:45:58;;;;;;;49.92;22.00;;;10.10;99.90;;;;;;4918246;29;20196;-69
2021/12/13 02:48:40;;;;;;;55.83;22.33;;;10.10;99.90;;;;;;4917852;29;20048;-68
2021/12/13 02:51:21;;;;;;;53.72;21.92;;;10.10;99.90;;;;;;4918183;29;20063;-68
2021/12/13 02:53:55;;;;;;;54.72;22.70;;;10.10;99.90;;;;;;4911402;29;20057;-67
2021/12/13 02:56:27;;;;;;;50.95;21.95;;;10.00;99.90;;;;;;4905049;29;20044;-66
2021/12/13 02:58:54;;;;;;;51.83;22.58;;;10.00;99.90;;;;;;4918549;29;20071;-69
2021/12/13 03:01:27;;;;;;;49.10;22.95;;;10.00;99.90;;;;;;4917671;29;20056;-69
2021/12/13 03:03:56;;;;;;;44.08;21.00;;;10.00;99.90;;;;;;4918229;29;20469;-69
2021/12/13 03:06:26;;;;;;;45.03;21.38;;;10.00;99.90;;;;;;4917321;29;20098;-67
2021/12/13 03:09:00;;;;;;;46.90;20.85;;;10.10;99.90;;;;;;4908756;29;20052;-67
2021/12/13 03:11:31;;;;;;;44.75;21.08;;;10.00;99.90;;;;;;4897447;29;20060;-71
2021/12/13 03:14:03;;;;;;;44.20;21.00;;;10.00;99.90;;;;;;4917724;29;20044;-67
2021/12/13 03:16:33;;;;;;;40.67;18.23;;;10.00;99.90;;;;;;4896370;29;20405;-67
2021/12/13 03:19:08;;;;;;;34.25;18.02;;;10.00;99.90;;;;;;4897137;29;20135;-70
2021/12/13 03:22:02;;;;;;;36.75;18.90;;;10.00;99.90;;;;;;4897162;29;20052;-67
2021/12/13 03:24:39;;;;;;;35.50;17.63;;;10.00;99.90;;;;;;4863319;29;20057;-67
2021/12/13 03:27:04;;;;;;;36.92;18.48;;;10.00;99.90;;;;;;4878185;29;20502;-67
2021/12/13 03:30:07;;;;;;;36.80;17.00;;;9.90;99.90;;;;;;4866955;29;20123;-68
2021/12/13 03:32:39;;;;;;;34.65;16.60;;;9.90;99.90;;;;;;4907533;29;20056;-66
2021/12/13 03:35:17;;;;;;;37.38;15.80;;;9.80;99.90;;;;;;4900588;29;20115;-68
2021/12/13 03:37:43;;;;;;;32.38;15.77;;;9.90;99.90;;;;;;4916751;29;20052;-70
2021/12/13 03:40:15;;;;;;;30.50;15.55;;;9.80;99.90;;;;;;4900343;29;20438;-67
2021/12/13 03:42:56;;;;;;;32.03;14.80;;;9.80;99.90;;;;;;4899835;29;20059;-68
2021/12/13 03:45:28;;;;;;;29.80;13.75;;;9.80;99.90;;;;;;4904831;29;20061;-68
2021/12/13 03:47:56;;;;;;;29.08;14.55;;;9.70;99.90;;;;;;4903295;29;20041;-68
2021/12/13 03:50:38;;;;;;;24.40;13.75;;;9.70;99.90;;;;;;4899945;29;20135;-67
2021/12/13 03:53:18;;;;;;;25.10;13.23;;;9.70;99.90;;;;;;4916335;29;20438;-66
2021/12/13 03:55:50;;;;;;;28.42;12.88;;;9.70;99.90;;;;;;4916520;29;20071;-67
2021/12/13 03:58:19;;;;;;;27.15;13.48;;;9.60;99.90;;;;;;4899927;29;20062;-68
2021/12/13 04:00:52;;;;;;;25.25;12.45;;;9.60;99.90;;;;;;4898020;29;20063;-69
2021/12/13 04:03:19;;;;;;;30.95;11.75;;;9.50;99.90;;;;;;4891485;29;20052;-67
2021/12/13 04:05:47;;;;;;;20.30;11.73;;;9.50;99.90;;;;;;4916978;29;20056;-69
2021/12/13 04:08:17;;;;;;;23.70;12.35;;;9.40;99.90;;;;;;4917148;29;20433;-69
2021/12/13 04:10:47;;;;;;;22.10;12.98;;;9.40;99.90;;;;;;4915508;29;20064;-68
2021/12/13 04:13:16;;;;;;;22.55;11.77;;;9.40;99.90;;;;;;4898801;29;20480;-68
2021/12/13 04:15:59;;;;;;;22.30;11.73;;;9.40;99.90;;;;;;4901344;29;20083;-67
2021/12/13 04:21:15;;;;;;;22.63;12.00;;;9.30;99.90;;;;;;4899276;29;20056;-66
2021/12/13 04:23:50;;;;;;;19.38;11.32;;;9.30;99.90;;;;;;4898852;29;20104;-68
2021/12/13 04:26:15;;;;;;;18.00;11.57;;;9.30;99.90;;;;;;4898204;29;20067;-67
2021/12/13 04:28:48;;;;;;;25.88;12.02;;;9.30;99.90;;;;;;4912705;29;20055;-68
2021/12/13 04:31:18;;;;;;;21.95;10.38;;;9.30;99.90;;;;;;4899828;29;20059;-66
2021/12/13 04:33:48;;;;;;;24.23;11.35;;;9.30;99.90;;;;;;4915689;29;20409;-67
2021/12/13 04:36:26;;;;;;;23.80;11.20;;;9.30;99.90;;;;;;4920592;29;20197;-67
2021/12/13 04:39:21;;;;;;;21.33;10.35;;;9.20;99.90;;;;;;4903551;29;20063;-68
2021/12/13 04:41:53;;;;;;;21.02;10.50;;;9.20;99.90;;;;;;4920041;29;20115;-67
2021/12/13 04:44:25;;;;;;;;;;;9.20;99.90;;;;;;4921070;29;20063;-67
2021/12/13 04:47:01;;;;;;;19.83;10.60;;;9.10;99.90;;;;;;4920284;29;19934;-67
2021/12/13 04:49:27;;;;;;;21.98;11.30;;;9.10;99.90;;;;;;4903593;29;20056;-67
2021/12/13 04:51:54;;;;;;;24.83;11.48;;;9.10;99.90;;;;;;4918927;29;20536;-68
2021/12/13 04:54:22;;;;;;;25.13;11.50;;;9.10;99.90;;;;;;4903937;29;20063;-66
2021/12/13 04:56:49;;;;;;;24.25;12.07;;;9.10;99.90;;;;;;4911024;29;20545;-68
2021/12/13 04:59:17;;;;;;;19.08;11.32;;;9.10;99.90;;;;;;4884356;29;20083;-68
2021/12/13 05:01:47;;;;;;;23.15;11.13;;;9.10;99.90;;;;;;4884377;29;20057;-67
2021/12/13 05:04:14;;;;;;;28.20;11.63;;;9.10;99.90;;;;;;4885099;29;20056;-68
2021/12/13 05:06:42;;;;;;;20.10;11.13;;;9.10;99.90;;;;;;4911024;29;20063;-67
2021/12/13 05:09:16;;;;;;;22.38;11.13;;;9.10;99.90;;;;;;4903255;29;20084;-67
2021/12/13 05:11:49;;;;;;;24.92;11.15;;;9.10;99.90;;;;;;4919326;29;20139;-67
2021/12/13 05:14:16;;;;;;;19.45;11.27;;;9.10;99.90;;;;;;4920390;29;20441;-68
2021/12/13 05:16:53;;;;;;;19.25;11.18;;;9.10;99.90;;;;;;4918277;29;20102;-68
2021/12/13 05:19:28;;;;;;;18.90;10.93;;;9.10;99.90;;;;;;4902600;29;20052;-67
2021/12/13 05:21:56;;;;;;;21.98;11.00;;;9.10;99.90;;;;;;4902717;29;20052;-66
2021/12/13 05:24:26;;;;;;;18.45;10.68;;;9.10;99.90;;;;;;4920203;29;20067;-67
2021/12/13 05:26:59;;;;;;;18.55;10.68;;;9.10;99.90;;;;;;4902076;29;20091;-68
2021/12/13 05:29:47;;;;;;;21.83;10.07;;;9.10;99.90;;;;;;4919787;29;20099;-67
2021/12/13 05:32:21;;;;;;;19.95;9.85;;;9.00;99.90;;;;;;4919231;29;20468;-68
2021/12/13 05:34:52;;;;;;;17.30;9.45;;;9.00;99.90;;;;;;4919659;29;20064;-67
2021/12/13 05:37:19;;;;;;;16.83;9.05;;;9.00;99.90;;;;;;4902150;29;20087;-68
2021/12/13 05:40:12;;;;;;;15.18;8.90;;;9.10;99.90;;;;;;4919554;29;20122;-68
2021/12/13 05:42:45;;;;;;;14.07;8.75;;;9.00;99.90;;;;;;4900393;29;20052;-68
2021/12/13 05:45:15;;;;;;;15.38;8.50;;;9.10;99.90;;;;;;4919071;29;20131;-68
2021/12/13 05:47:58;;;;;;;13.98;8.85;;;9.00;99.90;;;;;;4901910;29;20102;-69
2021/12/13 05:50:29;;;;;;;;;;;9.00;99.90;;;;;;4919810;29;20527;-68
2021/12/13 05:53:03;;;;;;;13.45;8.40;;;9.00;99.90;;;;;;4901674;29;19923;-66
2021/12/13 05:55:30;;;;;;;16.23;9.13;;;9.00;99.90;;;;;;4902295;29;20135;-68
2021/12/13 05:57:55;;;;;;;14.82;9.85;;;9.00;99.90;;;;;;4901823;29;20056;-69
2021/12/13 06:00:24;;;;;;;18.77;10.50;;;9.00;99.90;;;;;;4918106;29;20152;-68
2021/12/13 06:03:17;;;;;;;17.55;10.55;;;9.00;99.90;;;;;;4918750;29;20068;-69
2021/12/13 06:05:44;;;;;;;;;;;9.00;99.90;;;;;;4902800;29;20193;-67
2021/12/13 06:08:17;;;;;;;19.25;11.40;;;9.00;99.90;;;;;;4919121;29;20296;-67
2021/12/13 06:10:52;;;;;;;26.77;15.35;;;9.00;99.90;;;;;;4900920;29;20147;-68
2021/12/13 06:13:42;;;;;;;56.40;30.13;;;9.00;99.90;;;;;;4865016;29;20061;-67
2021/12/13 06:16:18;;;;;;;43.95;23.67;;;9.00;99.90;;;;;;4864089;29;20121;-68
2021/12/13 06:19:06;;;;;;;32.45;17.92;;;9.00;99.90;;;;;;4864577;29;20510;-68
2021/12/13 06:21:38;;;;;;;24.17;16.35;;;9.00;99.90;;;;;;4864293;29;20061;-68
2021/12/13 06:24:03;;;;;;;29.13;17.77;;;9.00;99.90;;;;;;4883149;29;20061;-67
2021/12/13 06:26:30;;;;;;;34.97;21.60;;;9.00;99.90;;;;;;4901045;29;20555;-68
2021/12/13 06:28:59;;;;;;;42.72;28.75;;;9.00;99.90;;;;;;4918722;29;20067;-65
2021/12/13 06:31:35;;;;;;;32.33;20.27;;;9.00;99.90;;;;;;4918374;29;20060;-66
2021/12/13 06:34:06;;;;;;;32.33;22.65;;;9.00;99.90;;;;;;4918604;29;20199;-67
2021/12/13 06:36:38;;;;;;;26.63;17.33;;;8.90;99.90;;;;;;4917985;29;20060;-69
2021/12/13 06:39:05;;;;;;;;;;;9.00;99.90;;;;;;4901870;29;20120;-68
2021/12/13 06:41:33;;;;;;;29.33;17.88;;;9.00;99.90;;;;;;4917576;29;19926;-67
2021/12/13 06:44:10;;;;;;;30.45;18.52;;;9.00;99.90;;;;;;4917922;29;20389;-66
2021/12/13 06:46:48;;;;;;;26.48;16.23;;;9.00;99.90;;;;;;4908431;29;20064;-68
2021/12/13 06:49:22;;;;;;;31.98;17.67;;;9.00;99.90;;;;;;4897772;29;20055;-68
2021/12/13 06:51:58;;;;;;;30.38;18.20;;;9.00;99.90;;;;;;4898718;29;20497;-68
2021/12/13 06:54:42;;;;;;;30.38;19.08;;;9.00;99.90;;;;;;4883436;29;20350;-67
2021/12/13 06:57:18;;;;;;;29.75;17.67;;;9.00;99.90;;;;;;4898866;29;20051;-66
2021/12/13 07:00:14;;;;;;;31.27;19.75;;;9.00;99.90;;;;;;4892464;29;20350;-66
2021/12/13 07:02:45;;;;;;;34.35;19.77;;;9.00;99.90;;;;;;4885775;29;20482;-67
2021/12/13 07:05:16;;;;;;;34.88;20.73;;;9.00;99.90;;;;;;4898877;29;20136;-68
2021/12/13 07:07:55;;;;;;;33.05;19.52;;;9.00;99.90;;;;;;4902921;29;20051;-68
2021/12/13 07:10:31;;;;;;;39.22;25.35;;;9.00;99.90;;;;;;4917273;29;20637;-68
2021/12/13 07:13:02;;;;;;;34.35;22.45;;;9.00;99.90;;;;;;4893028;29;20041;-68
2021/12/13 07:15:50;;;;;;;37.72;22.70;;;9.00;99.90;;;;;;4898629;29;20076;-68
2021/12/13 07:18:29;;;;;;;34.53;22.25;;;9.00;99.90;;;;;;4888966;29;20060;-68
2021/12/13 07:21:25;;;;;;;34.83;22.63;;;9.00;99.90;;;;;;4909741;29;20056;-67
2021/12/13 07:24:06;;;;;;;37.95;22.30;;;9.00;99.90;;;;;;4898805;29;20075;-66
2021/12/13 07:26:55;;;;;;;42.45;24.70;;;9.00;99.90;;;;;;4887401;29;20048;-67
2021/12/13 07:29:25;;;;;;;42.35;25.63;;;9.00;99.90;;;;;;4917559;29;20131;-68
2021/12/13 07:32:16;;;;;;;37.92;24.67;;;9.00;99.90;;;;;;4900163;29;20480;-68
2021/12/13 07:36:34;;;;;;;37.60;24.15;;;9.00;99.90;;;;;;5219716;22;1206072;-68
2021/12/13 07:39:07;;;;;;;36.15;23.50;;;9.00;99.90;;;;;;5047115;28;21894;-68
2021/12/13 07:41:52;;;;;;;42.15;25.65;;;9.00;99.90;;;;;;5012613;28;20450;-68
2021/12/13 07:44:35;;;;;;;45.70;27.40;;;9.00;99.90;;;;;;5047315;28;20456;-70
2021/12/13 07:47:12;;;;;;;43.55;26.40;;;9.00;99.90;;;;;;5047857;28;20450;-68
2021/12/13 07:49:43;;;;;;;44.95;28.02;;;9.00;99.90;;;;;;5037955;28;20153;-68
2021/12/13 07:52:21;;;;;;;43.15;26.98;;;9.00;99.90;;;;;;5045709;28;20047;-69
2021/12/13 07:54:47;;;;;;;45.92;28.75;;;9.10;99.90;;;;;;5035127;28;20046;-69
2021/12/13 07:57:21;;;;;;;48.05;29.98;;;9.10;99.90;;;;;;5029000;28;20539;-68
2021/12/13 07:59:47;;;;;;;49.70;30.38;;;9.10;99.90;;;;;;5039039;28;20350;-68
2021/12/13 08:02:31;;;;;;;46.03;27.33;;;9.10;99.90;;;;;;5048344;28;20099;-68
2021/12/13 08:05:13;;;;;;;47.63;28.58;;;9.10;99.90;;;;;;5035341;28;20508;-69
2021/12/13 08:07:48;;;;;;;47.78;30.58;;;9.10;99.90;;;;;;5039412;28;20092;-69
2021/12/13 08:10:24;;;;;;;45.75;26.83;;;9.10;99.90;;;;;;5047973;28;20042;-69
2021/12/13 08:12:55;;;;;;;47.47;28.08;;;9.00;99.90;;;;;;5042853;28;20385;-68
2021/12/13 08:15:24;;;;;;;44.55;26.88;;;9.10;99.90;;;;;;5041756;28;20059;-69
2021/12/13 08:17:59;;;;;;;42.97;26.50;;;9.10;99.90;;;;;;5046856;28;20116;-69
2021/12/13 08:20:29;;;;;;;46.90;28.38;;;9.10;99.90;;;;;;5047333;28;20437;-69
2021/12/13 08:22:57;;;;;;;41.33;26.08;;;9.10;99.90;;;;;;5048040;28;20377;-69
2021/12/13 08:25:37;;;;;;;42.28;25.40;;;9.10;99.90;;;;;;5040398;28;20395;-67
2021/12/13 08:28:10;;;;;;;44.58;25.35;;;9.10;99.90;;;;;;5039528;28;20119;-69
2021/12/13 08:30:46;;;;;;;38.20;24.30;;;9.10;99.90;;;;;;5048831;28;20151;-68
2021/12/13 08:33:25;;;;;;;39.15;24.13;;;9.10;99.90;;;;;;5031267;28;20052;-68
2021/12/13 08:35:57;;;;;;;38.60;23.92;;;9.10;99.90;;;;;;5047746;28;20530;-67
2021/12/13 08:38:46;;;;;;;39.25;24.05;;;9.10;99.90;;;;;;5047596;28;20072;-67
2021/12/13 08:41:15;;;;;;;36.75;23.85;;;9.10;99.90;;;;;;5047555;28;20136;-68
2021/12/13 08:43:50;;;;;;;37.67;22.33;;;9.10;99.90;;;;;;5047338;28;20107;-70
2021/12/13 08:46:43;;;;;;;37.35;23.95;;;9.10;99.90;;;;;;5042304;28;20049;-68
2021/12/13 08:49:24;;;;;;;35.33;22.52;;;9.10;99.90;;;;;;5035934;28;20045;-68
2021/12/13 08:52:14;;;;;;;32.70;22.98;;;9.10;99.90;;;;;;5034555;28;20057;-68
2021/12/13 08:54:58;;;;;;;32.53;21.45;;;9.20;99.90;;;;;;5034627;28;20038;-70
2021/12/13 08:57:45;;;;;;;34.17;23.10;;;9.20;99.90;;;;;;5033924;28;20072;-68
2021/12/13 09:00:17;;;;;;;33.92;21.90;;;9.20;99.90;;;;;;5034627;28;20054;-70
2021/12/13 09:02:55;;;;;;;35.22;22.20;;;9.20;99.90;;;;;;5033621;28;20055;-68
2021/12/13 09:05:34;;;;;;;34.42;22.50;;;9.20;99.90;;;;;;5035517;28;20057;-69
2021/12/13 09:08:10;;;;;;;36.38;21.80;;;9.20;99.90;;;;;;5035211;28;20049;-70
2021/12/13 09:10:54;;;;;;;32.67;21.25;;;9.20;99.90;;;;;;5034375;28;20103;-69
2021/12/13 09:13:51;;;;;;;31.42;20.70;;;9.20;99.90;;;;;;4997617;28;20057;-69
2021/12/13 09:16:21;;;;;;;32.72;20.17;;;9.20;99.90;;;;;;5014961;28;20050;-70
2021/12/13 09:19:05;;;;;;;30.77;21.17;;;9.20;99.90;;;;;;5015332;28;20498;-69
2021/12/13 09:21:31;;;;;;;33.78;20.27;;;9.20;99.90;;;;;;5014023;28;20056;-69
2021/12/13 09:23:57;;;;;;;30.65;20.67;;;9.20;99.90;;;;;;5014208;28;20053;-68
2021/12/13 09:26:25;;;;;;;35.10;21.35;;;9.20;99.90;;;;;;5014094;28;20042;-68
2021/12/13 09:28:55;;;;;;;32.38;20.08;;;9.20;99.90;;;;;;4997844;28;20488;-68
2021/12/13 09:31:25;;;;;;;30.35;19.65;;;9.30;99.90;;;;;;5031241;28;20053;-68
2021/12/13 09:33:56;;;;;;;31.48;20.60;;;9.30;99.90;;;;;;5033543;28;20119;-69
2021/12/13 09:36:26;;;;;;;34.58;20.95;;;9.30;99.90;;;;;;5031238;28;20444;-68
2021/12/13 09:39:10;;;;;;;31.52;21.15;;;9.30;99.90;;;;;;5034298;28;20041;-69
2021/12/13 09:42:00;;;;;;;30.02;20.10;;;9.40;99.90;;;;;;5032507;28;20050;-68
2021/12/13 09:44:40;;;;;;;30.02;19.98;;;9.40;99.90;;;;;;5023503;28;20057;-68
2021/12/13 09:47:10;;;;;;;31.08;20.00;;;9.40;99.90;;;;;;5014830;28;20053;-69
2021/12/13 09:49:56;;;;;;;28.92;19.10;;;9.40;99.90;;;;;;5024917;28;20121;-68
2021/12/13 09:52:32;;;;;;;27.60;18.63;;;9.50;99.90;;;;;;5002840;28;20057;-68
2021/12/13 09:55:17;;;;;;;27.98;19.05;;;9.50;99.90;;;;;;5029027;28;20057;-68
2021/12/13 09:58:11;;;;;;;29.85;18.73;;;9.50;99.90;;;;;;5046859;28;20481;-69
2021/12/13 10:00:46;;;;;;;26.95;19.25;;;9.50;99.90;;;;;;4996730;28;20458;-69
2021/12/13 10:03:21;;;;;;;32.40;18.33;;;9.50;99.90;;;;;;5013714;28;20049;-68
2021/12/13 10:05:51;;;;;;;25.38;17.67;;;9.50;99.90;;;;;;5013543;28;20458;-68
2021/12/13 10:08:22;;;;;;;28.70;19.02;;;9.60;99.90;;;;;;5014474;28;20058;-70
2021/12/13 10:10:57;;;;;;;29.63;17.60;;;9.60;99.90;;;;;;5024984;28;20065;-69
2021/12/13 10:13:31;;;;;;;25.80;18.38;;;9.60;99.90;;;;;;5032794;28;20450;-70
2021/12/13 10:16:07;;;;;;;26.73;17.95;;;9.50;99.90;;;;;;5033413;28;20053;-68
2021/12/13 10:18:34;;;;;;;28.15;18.20;;;9.50;99.90;;;;;;5033265;28;20159;-68
2021/12/13 10:21:15;;;;;;;24.80;18.27;;;9.60;99.90;;;;;;5020508;28;20053;-70
2021/12/13 10:23:46;;;;;;;25.70;17.42;;;9.60;99.90;;;;;;5017248;28;20076;-67
2021/12/13 10:26:14;;;;;;;27.00;17.65;;;9.60;99.90;;;;;;5034026;28;20057;-68
2021/12/13 10:28:45;;;;;;;25.33;17.63;;;9.60;99.90;;;;;;5032718;28;20060;-69
2021/12/13 10:31:18;;;;;;;26.85;16.48;;;9.70;99.90;;;;;;5022999;28;20133;-67
2021/12/13 10:33:45;;;;;;;24.17;16.17;;;9.70;99.90;;;;;;5013453;28;20404;-68
2021/12/13 10:36:11;;;;;;;22.85;15.68;;;9.70;99.90;;;;;;5014063;28;20068;-67
2021/12/13 10:39:08;;;;;;;23.58;16.58;;;9.70;99.90;;;;;;5012377;28;20137;-68
2021/12/13 10:41:43;;;;;;;24.58;16.20;;;9.70;99.90;;;;;;4999582;28;20050;-67
2021/12/13 10:44:13;;;;;;;29.65;16.65;;;9.70;99.90;;;;;;5012786;28;20509;-68
2021/12/13 10:46:44;;;;;;;28.33;15.98;;;9.70;99.90;;;;;;5013019;28;20053;-68
2021/12/13 10:49:18;;;;;;;23.52;16.33;;;9.70;99.90;;;;;;5012747;28;20053;-69
2021/12/13 10:51:55;;;;;;;25.02;16.52;;;9.80;99.90;;;;;;5013297;28;20064;-69
2021/12/13 10:54:24;;;;;;;23.02;15.55;;;9.80;99.90;;;;;;5032226;28;20385;-70
2021/12/13 10:57:01;;;;;;;20.65;15.75;;;9.80;99.90;;;;;;5031290;28;20422;-68
2021/12/13 10:59:28;;;;;;;23.52;15.57;;;9.80;99.90;;;;;;5031841;28;20058;-69
2021/12/13 11:01:58;;;;;;;25.38;14.82;;;9.80;99.90;;;;;;5031184;28;20111;-70
2021/12/13 11:04:33;;;;;;;22.83;15.45;;;9.80;99.90;;;;;;5015590;28;20448;-70
2021/12/13 11:07:00;;;;;;;23.38;15.05;;;9.80;99.90;;;;;;5031860;28;20041;-68
2021/12/13 11:09:26;;;;;;;22.73;14.52;;;9.90;99.90;;;;;;5028082;28;20527;-69
2021/12/13 11:11:58;;;;;;;25.75;15.45;;;9.80;99.90;;;;;;5013869;28;20061;-70
2021/12/13 11:14:25;;;;;;;22.70;13.60;;;9.90;99.90;;;;;;5031809;28;20057;-70
2021/12/13 11:16:57;;;;;;;23.08;15.52;;;9.90;99.90;;;;;;5030932;28;20049;-70
2021/12/13 11:19:26;;;;;;;21.60;14.80;;;9.90;99.90;;;;;;5023627;28;20448;-69
2021/12/13 11:22:01;;;;;;;20.92;14.20;;;9.90;99.90;;;;;;5029987;28;20095;-71
2021/12/13 11:24:27;;;;;;;19.60;13.85;;;9.90;99.90;;;;;;5031888;28;20128;-69
2021/12/13 11:26:57;;;;;;;21.73;14.40;;;9.90;99.90;;;;;;5037840;28;20088;-70
2021/12/13 11:29:23;;;;;;;23.20;14.25;;;9.90;99.90;;;;;;5039947;28;20053;-70
2021/12/13 11:31:55;;;;;;;20.70;14.10;;;9.90;99.90;;;;;;5030812;28;20465;-69
2021/12/13 11:34:45;;;;;;;;;;;9.90;99.90;;;;;;5032789;28;20058;-68
2021/12/13 11:37:11;;;;;;;21.77;14.32;;;9.90;99.90;;;;;;5030314;28;19925;-68
2021/12/13 11:40:09;;;;;;;19.23;14.43;;;9.90;99.90;;;;;;5032698;28;20060;-70
2021/12/13 11:43:10;;;;;;;23.65;14.93;;;9.90;99.90;;;;;;5031401;28;20049;-70
2021/12/13 11:46:13;;;;;;;21.25;14.80;;;10.00;99.90;;;;;;5014500;28;20394;-69
2021/12/13 11:49:30;;;;;;;22.05;15.43;;;9.90;99.90;;;;;;4995913;28;20061;-70
2021/12/13 11:52:24;;;;;;;25.27;17.13;;;9.90;99.90;;;;;;5011401;28;20062;-70
2021/12/13 11:55:23;;;;;;;22.60;15.57;;;9.90;99.90;;;;;;5011996;28;20403;-70
2021/12/13 11:58:15;;;;;;;22.83;15.38;;;10.00;99.90;;;;;;5011722;28;20090;-70
2021/12/13 12:01:18;;;;;;;26.58;17.30;;;9.90;99.90;;;;;;5013353;28;20046;-71
2021/12/13 12:03:44;;;;;;;;;;;10.00;99.90;;;;;;5014413;28;20057;-69
2021/12/13 12:06:34;;;;;;;25.73;15.68;;;9.90;99.90;;;;;;5031173;28;20376;-71
2021/12/13 12:09:18;;;;;;;20.58;14.77;;;9.90;99.90;;;;;;5030978;28;20485;-70
2021/12/13 12:12:12;;;;;;;21.55;15.43;;;9.90;99.90;;;;;;5029097;28;20092;-69
2021/12/13 12:14:38;;;;;;;19.73;14.65;;;10.00;99.90;;;;;;5022296;28;20053;-69
2021/12/13 12:17:05;;;;;;;22.70;15.50;;;10.00;99.90;;;;;;5026409;28;20102;-70
2021/12/13 12:19:35;;;;;;;21.42;14.38;;;10.00;99.90;;;;;;5011730;28;20054;-70
2021/12/13 12:22:10;;;;;;;18.45;13.88;;;10.00;99.90;;;;;;5013377;28;20129;-69
2021/12/13 12:24:54;;;;;;;18.52;13.20;;;10.00;99.90;;;;;;5015328;28;20058;-71
2021/12/13 12:27:35;;;;;;;20.63;14.55;;;10.00;99.90;;;;;;5016539;28;20054;-69
2021/12/13 12:30:08;;;;;;;22.20;13.65;;;10.00;99.90;;;;;;5015267;28;20069;-70
2021/12/13 12:32:44;;;;;;;19.15;13.43;;;10.00;99.90;;;;;;5022009;28;20120;-70
2021/12/13 12:35:14;;;;;;;20.33;13.38;;;10.00;99.90;;;;;;5019119;28;20050;-70
2021/12/13 12:38:01;;;;;;;19.23;14.23;;;9.90;99.90;;;;;;5034326;28;20079;-70
2021/12/13 12:40:27;;;;;;;22.50;16.25;;;10.00;99.90;;;;;;5025465;28;20053;-70
2021/12/13 12:42:56;;;;;;;18.40;13.55;;;10.00;99.90;;;;;;5014430;28;20050;-70
2021/12/13 12:45:33;;;;;;;20.00;14.10;;;10.00;99.90;;;;;;5016219;28;20065;-69
2021/12/13 12:48:27;;;;;;;29.10;19.48;;;10.00;99.90;;;;;;5027643;28;20501;-70
2021/12/13 12:51:10;;;;;;;20.85;14.85;;;10.00;99.90;;;;;;5034041;28;20156;-69
2021/12/13 12:53:36;;;;;;;19.75;13.52;;;10.00;99.90;;;;;;5017376;28;20100;-69
2021/12/13 12:56:25;;;;;;;24.42;16.48;;;10.00;99.90;;;;;;5019343;28;20053;-70
2021/12/13 12:59:01;;;;;;;22.67;14.07;;;10.00;99.90;;;;;;5028662;28;20118;-70
2021/12/13 13:01:40;;;;;;;18.98;14.38;;;10.10;99.90;;;;;;5034270;28;20053;-70
2021/12/13 13:04:14;;;;;;;19.98;15.15;;;10.10;99.90;;;;;;5034019;28;20049;-71
2021/12/13 13:06:54;;;;;;;20.27;14.15;;;10.10;99.90;;;;;;5035462;28;20114;-69
2021/12/13 13:09:21;;;;;;;22.75;13.75;;;10.10;99.90;;;;;;5031677;28;20073;-70
2021/12/13 13:11:51;;;;;;;18.65;13.85;;;10.10;99.90;;;;;;5028266;28;20461;-70
2021/12/13 13:14:22;;;;;;;19.60;14.77;;;10.20;99.90;;;;;;5035566;28;20057;-71
2021/12/13 13:16:53;;;;;;;19.98;14.75;;;10.10;99.90;;;;;;5033535;28;20050;-72
2021/12/13 13:19:42;;;;;;;18.52;13.50;;;10.20;99.90;;;;;;5034124;28;20069;-71
2021/12/13 13:22:13;;;;;;;19.23;12.90;;;10.20;99.90;;;;;;5033562;28;20485;-71
2021/12/13 13:24:45;;;;;;;20.60;13.07;;;10.20;99.90;;;;;;5034187;28;20153;-70
2021/12/13 13:27:12;;;;;;;16.63;12.55;;;10.20;99.90;;;;;;5033772;28;20053;-69
2021/12/13 13:29:38;;;;;;;21.70;13.55;;;10.30;99.90;;;;;;5034176;28;20061;-69
2021/12/13 13:32:09;;;;;;;21.00;12.98;;;10.30;99.90;;;;;;5033167;28;20465;-71